Time;durP1;ratioP1;P1;durP2;ratioP2;P2;SDS_P1;SDS_P2;PMS_P1;PMS_P2;Temp;Humidity;BMP_temperature;BMP_pressure;BME280_temperature;BME280_humidity;BME280_pressure;Samples;Min_cycle;Max_cycle;Signal;HPM_P1;HPM_P2
2023/03/19 00:01:56;;;;;;;2.37;2.17;;;2.90;77.90;;;;;;4980773;28;20631;-78
2023/03/19 00:04:23;;;;;;;2.37;2.10;;;2.90;77.90;;;;;;4974249;28;20190;-78
2023/03/19 00:06:49;;;;;;;3.20;2.40;;;2.90;78.00;;;;;;4975248;28;20209;-78
2023/03/19 00:09:16;;;;;;;5.50;2.20;;;2.80;78.00;;;;;;4978874;28;20217;-78
2023/03/19 00:11:42;;;;;;;2.20;2.20;;;2.80;78.20;;;;;;4974634;28;20194;-79
2023/03/19 00:14:08;;;;;;;5.43;2.57;;;2.80;78.40;;;;;;4980612;28;20187;-78
2023/03/19 00:16:34;;;;;;;3.87;2.20;;;2.80;78.70;;;;;;4975641;28;20585;-78
2023/03/19 00:19:00;;;;;;;5.50;2.57;;;2.80;78.70;;;;;;4979491;28;20205;-80
2023/03/19 00:21:26;;;;;;;2.43;1.70;;;2.80;78.60;;;;;;4976586;28;20190;-79
2023/03/19 00:23:51;;;;;;;2.73;2.47;;;2.70;78.40;;;;;;4980306;28;20181;-79
2023/03/19 00:26:17;;;;;;;4.93;2.47;;;2.70;78.50;;;;;;4978556;28;20201;-79
2023/03/19 00:28:43;;;;;;;3.80;2.00;;;2.60;78.70;;;;;;4977816;28;20297;-79
2023/03/19 00:31:14;;;;;;;2.53;2.30;;;2.50;78.90;;;;;;4970461;28;20304;-79
2023/03/19 00:33:40;;;;;;;3.67;1.87;;;2.50;79.00;;;;;;4969678;28;20192;-79
2023/03/19 00:36:07;;;;;;;6.10;2.43;;;2.50;79.40;;;;;;4975103;28;20194;-79
2023/03/19 00:38:34;;;;;;;5.70;2.40;;;2.50;79.50;;;;;;4976864;28;20920;-79
2023/03/19 00:41:01;;;;;;;2.80;2.53;;;2.50;79.70;;;;;;4970547;28;20194;-79
2023/03/19 00:43:27;;;;;;;6.73;2.27;;;2.50;79.80;;;;;;4977381;28;20271;-79
2023/03/19 00:45:53;;;;;;;2.07;1.97;;;2.40;79.80;;;;;;4978544;28;20277;-79
2023/03/19 00:48:20;;;;;;;2.03;1.90;;;2.40;79.90;;;;;;4977016;28;20224;-79
2023/03/19 00:50:46;;;;;;;2.53;2.43;;;2.40;80.10;;;;;;4978305;28;20287;-79
2023/03/19 00:53:12;;;;;;;2.90;2.60;;;2.40;80.00;;;;;;4977351;28;20182;-79
2023/03/19 00:55:38;;;;;;;1.53;1.53;;;2.40;79.90;;;;;;4976252;28;20239;-79
2023/03/19 00:58:05;;;;;;;7.53;1.83;;;2.40;80.00;;;;;;4973867;28;20307;-80
2023/03/19 01:00:35;;;;;;;3.23;2.93;;;2.40;80.10;;;;;;4981641;28;20272;-80
2023/03/19 01:03:01;;;;;;;2.20;2.03;;;2.30;80.00;;;;;;4980623;28;20182;-79
2023/03/19 01:05:27;;;;;;;1.53;1.50;;;2.30;79.90;;;;;;4980271;28;20236;-80
2023/03/19 01:07:52;;;;;;;4.37;2.37;;;2.30;79.80;;;;;;4975707;28;20218;-80
2023/03/19 01:10:20;;;;;;;1.50;1.43;;;2.30;80.10;;;;;;4975257;28;20208;-79
2023/03/19 01:12:47;;;;;;;4.03;2.10;;;2.30;80.20;;;;;;4977766;28;20259;-79
2023/03/19 01:15:13;;;;;;;4.57;1.90;;;2.20;80.40;;;;;;4979459;28;20197;-79
2023/03/19 01:17:39;;;;;;;1.97;1.87;;;2.20;80.40;;;;;;4977419;28;20190;-79
2023/03/19 01:20:11;;;;;;;2.17;1.97;;;2.20;80.30;;;;;;4980518;28;20189;-78
2023/03/19 01:22:41;;;;;;;2.13;1.93;;;2.20;80.50;;;;;;4976456;28;20320;-79
2023/03/19 01:25:08;;;;;;;2.03;1.93;;;2.20;80.70;;;;;;4977812;28;20268;-79
2023/03/19 01:27:34;;;;;;;3.43;1.83;;;2.20;80.70;;;;;;4979895;28;20217;-79
2023/03/19 01:30:01;;;;;;;6.00;2.03;;;2.20;80.60;;;;;;4979617;28;20189;-80
2023/03/19 01:32:26;;;;;;;2.27;2.03;;;2.20;80.70;;;;;;4980693;28;20190;-79
2023/03/19 01:34:52;;;;;;;2.00;1.90;;;2.20;80.80;;;;;;4978462;28;20193;-79
2023/03/19 01:37:19;;;;;;;3.90;2.27;;;2.20;80.90;;;;;;4977942;28;20214;-79
2023/03/19 01:39:45;;;;;;;3.30;3.00;;;2.20;80.90;;;;;;4978175;28;20189;-79
2023/03/19 01:42:12;;;;;;;2.57;2.33;;;2.20;80.90;;;;;;4980384;28;20186;-79
2023/03/19 01:44:39;;;;;;;2.03;1.87;;;2.20;80.90;;;;;;4979565;28;20545;-79
2023/03/19 01:47:18;;;;;;;4.50;2.57;;;2.20;80.90;;;;;;4974545;28;20221;-79
2023/03/19 01:49:53;;;;;;;3.43;2.03;;;2.10;81.00;;;;;;4979674;28;20268;-79
2023/03/19 01:52:20;;;;;;;3.10;1.97;;;2.10;81.00;;;;;;4976580;28;20182;-80
2023/03/19 01:54:49;;;;;;;6.63;2.97;;;2.10;81.10;;;;;;4980880;28;20962;-79
2023/03/19 01:57:16;;;;;;;2.77;1.47;;;2.10;81.10;;;;;;4973932;28;20715;-80
2023/03/19 01:59:51;;;;;;;9.63;3.07;;;2.10;81.20;;;;;;4978674;28;20632;-79
2023/03/19 02:02:31;;;;;;;3.07;2.60;;;2.10;81.20;;;;;;4976955;28;20188;-79
2023/03/19 02:05:07;;;;;;;2.47;2.23;;;2.00;81.40;;;;;;4978984;28;20182;-79
2023/03/19 02:07:35;;;;;;;4.37;2.43;;;2.00;81.40;;;;;;4977596;28;20984;-79
2023/03/19 02:10:04;;;;;;;3.43;2.50;;;2.00;81.60;;;;;;4975987;28;20218;-79
2023/03/19 02:12:31;;;;;;;3.87;2.50;;;2.00;81.80;;;;;;4978170;28;20182;-79
2023/03/19 02:14:57;;;;;;;3.43;2.50;;;1.90;81.80;;;;;;4979493;28;20182;-79
2023/03/19 02:17:22;;;;;;;3.57;2.83;;;1.90;81.90;;;;;;4977977;28;20189;-79
2023/03/19 02:20:11;;;;;;;2.97;2.27;;;1.90;81.90;;;;;;4979087;28;20264;-79
2023/03/19 02:22:43;;;;;;;4.67;2.43;;;1.90;82.00;;;;;;4972784;28;20213;-79
2023/03/19 02:25:23;;;;;;;4.10;2.57;;;1.80;82.00;;;;;;4975654;28;20177;-79
2023/03/19 02:27:50;;;;;;;3.33;2.13;;;1.80;82.00;;;;;;4977771;28;20253;-79
2023/03/19 02:30:19;;;;;;;3.07;2.33;;;1.80;82.00;;;;;;4977185;28;20200;-79
2023/03/19 02:32:45;;;;;;;1.77;1.67;;;1.80;82.10;;;;;;4973403;28;20252;-79
2023/03/19 02:35:11;;;;;;;5.37;2.57;;;1.70;82.10;;;;;;4974021;28;20261;-79
2023/03/19 02:37:37;;;;;;;13.87;3.03;;;1.70;82.20;;;;;;4977677;28;20269;-79
2023/03/19 02:40:07;;;;;;;3.00;2.10;;;1.70;82.30;;;;;;4979466;28;20182;-79
2023/03/19 02:42:34;;;;;;;6.10;2.53;;;1.70;82.30;;;;;;4973387;28;20942;-79
2023/03/19 02:44:59;;;;;;;7.63;2.57;;;1.70;82.40;;;;;;4980553;28;20283;-79
2023/03/19 02:47:26;;;;;;;6.10;2.90;;;1.70;82.60;;;;;;4979856;28;20214;-79
2023/03/19 02:49:52;;;;;;;3.17;2.50;;;1.70;82.60;;;;;;4977796;28;20256;-79
2023/03/19 02:52:18;;;;;;;2.70;2.47;;;1.60;82.80;;;;;;4977445;28;20185;-79
2023/03/19 02:54:45;;;;;;;2.63;2.00;;;1.60;82.80;;;;;;4991173;28;20212;-79
2023/03/19 02:57:11;;;;;;;3.80;2.57;;;1.60;82.80;;;;;;4977322;28;20287;-79
2023/03/19 02:59:37;;;;;;;4.20;2.90;;;1.60;82.90;;;;;;4979000;28;20722;-79
2023/03/19 03:02:04;;;;;;;3.57;2.90;;;1.60;83.10;;;;;;4977859;28;20177;-79
2023/03/19 03:04:30;;;;;;;2.63;2.40;;;1.50;83.10;;;;;;4982488;28;20175;-79
2023/03/19 03:06:56;;;;;;;2.90;2.70;;;1.50;83.10;;;;;;4977088;28;20230;-79
2023/03/19 03:09:22;;;;;;;4.80;2.47;;;1.50;83.10;;;;;;4981129;28;20828;-79
2023/03/19 03:11:48;;;;;;;2.80;2.00;;;1.50;83.10;;;;;;4980960;28;20277;-79
2023/03/19 03:14:14;;;;;;;2.90;2.67;;;1.50;83.20;;;;;;4976827;28;20265;-79
2023/03/19 03:16:40;;;;;;;6.90;2.97;;;1.50;83.20;;;;;;4979260;28;20568;-79
2023/03/19 03:19:06;;;;;;;5.10;2.23;;;1.50;83.30;;;;;;4978218;28;20197;-79
2023/03/19 03:21:32;;;;;;;3.13;2.57;;;1.50;83.30;;;;;;4980697;28;20226;-79
2023/03/19 03:23:58;;;;;;;2.40;2.03;;;1.50;83.60;;;;;;4978848;28;20236;-77
2023/03/19 03:26:24;;;;;;;6.80;3.40;;;1.40;83.80;;;;;;4982589;28;20364;-78
2023/03/19 03:28:50;;;;;;;2.30;2.07;;;1.40;84.00;;;;;;4978527;28;20225;-78
2023/03/19 03:31:17;;;;;;;4.53;2.60;;;1.40;84.10;;;;;;4974580;28;20678;-78
2023/03/19 03:33:42;;;;;;;2.87;2.30;;;1.40;84.20;;;;;;4976293;28;20591;-77
2023/03/19 03:36:08;;;;;;;3.20;2.23;;;1.40;84.20;;;;;;4975899;28;20228;-79
2023/03/19 03:38:34;;;;;;;1.83;1.70;;;1.30;84.20;;;;;;4979104;28;20194;-78
2023/03/19 03:41:00;;;;;;;2.30;2.00;;;1.30;84.10;;;;;;4976204;28;20568;-78
2023/03/19 03:43:26;;;;;;;1.90;1.80;;;1.30;84.20;;;;;;4979703;28;20635;-79
2023/03/19 03:45:52;;;;;;;5.77;2.03;;;1.30;84.20;;;;;;4977550;28;20592;-79
2023/03/19 03:48:18;;;;;;;1.47;1.40;;;1.30;84.30;;;;;;4981175;28;20216;-78
2023/03/19 03:50:43;;;;;;;1.87;1.67;;;1.30;84.40;;;;;;4977273;28;20292;-79
2023/03/19 03:53:11;;;;;;;4.37;2.13;;;1.30;84.50;;;;;;4980113;28;20186;-79
2023/03/19 03:55:37;;;;;;;5.63;1.60;;;1.20;84.60;;;;;;4978170;28;20182;-79
2023/03/19 03:58:02;;;;;;;6.27;2.80;;;1.20;84.60;;;;;;4979527;28;20583;-78
2023/03/19 04:00:28;;;;;;;1.53;1.17;;;1.20;84.60;;;;;;4982800;28;20209;-79
2023/03/19 04:02:54;;;;;;;3.70;1.50;;;1.20;84.70;;;;;;4975271;28;20205;-78
2023/03/19 04:05:20;;;;;;;3.03;1.40;;;1.20;84.60;;;;;;4979722;28;20279;-79
2023/03/19 04:07:46;;;;;;;1.20;1.20;;;1.20;84.60;;;;;;4979261;28;20225;-78
2023/03/19 04:10:13;;;;;;;2.10;1.57;;;1.20;84.60;;;;;;4981073;28;20185;-78
2023/03/19 04:12:38;;;;;;;1.90;1.80;;;1.10;84.50;;;;;;4979534;28;20737;-79
2023/03/19 04:15:08;;;;;;;2.70;1.50;;;1.10;84.70;;;;;;4976973;28;20181;-78
2023/03/19 04:17:34;;;;;;;3.53;1.93;;;1.00;84.80;;;;;;4980739;28;20177;-79
2023/03/19 04:20:01;;;;;;;5.57;1.20;;;1.00;84.80;;;;;;4975056;28;20228;-79
2023/03/19 04:22:27;;;;;;;1.50;1.40;;;1.00;84.80;;;;;;4981745;28;20261;-78
2023/03/19 04:24:53;;;;;;;1.77;1.63;;;1.00;84.90;;;;;;4978713;28;20854;-78
2023/03/19 04:27:19;;;;;;;3.67;1.43;;;1.00;85.00;;;;;;4985283;28;20213;-79
2023/03/19 04:29:45;;;;;;;2.27;2.13;;;1.00;84.80;;;;;;4980297;28;20190;-78
2023/03/19 04:32:11;;;;;;;1.47;1.37;;;1.00;84.90;;;;;;4980432;28;20631;-79
2023/03/19 04:34:36;;;;;;;1.33;1.23;;;1.00;84.80;;;;;;4976471;28;20264;-79
2023/03/19 04:37:02;;;;;;;2.90;1.77;;;1.00;84.90;;;;;;4978699;28;20189;-79
2023/03/19 04:39:28;;;;;;;1.80;1.70;;;1.00;84.90;;;;;;4981576;28;20209;-79
2023/03/19 04:41:54;;;;;;;1.23;1.23;;;1.00;85.00;;;;;;4976668;28;20194;-79
2023/03/19 04:44:20;;;;;;;0.80;0.80;;;1.00;84.80;;;;;;4978399;28;20190;-78
2023/03/19 04:46:46;;;;;;;1.63;1.07;;;1.00;85.00;;;;;;4976241;28;20268;-78
2023/03/19 04:49:12;;;;;;;2.37;0.93;;;1.00;84.90;;;;;;4976533;28;20283;-78
2023/03/19 04:51:38;;;;;;;1.37;1.23;;;1.00;85.00;;;;;;4977362;28;20188;-78
2023/03/19 04:54:04;;;;;;;3.73;1.67;;;1.00;85.10;;;;;;4976678;28;21214;-79
2023/03/19 04:56:30;;;;;;;2.03;1.90;;;1.10;84.80;;;;;;4975066;28;20182;-79
2023/03/19 04:58:56;;;;;;;1.50;1.10;;;1.10;85.10;;;;;;4976126;28;20194;-78
2023/03/19 05:01:22;;;;;;;2.07;1.37;;;1.00;85.10;;;;;;4980004;28;20193;-79
2023/03/19 05:03:48;;;;;;;1.07;1.07;;;1.10;84.80;;;;;;4976456;28;20273;-79
2023/03/19 05:06:13;;;;;;;1.40;1.30;;;1.10;85.00;;;;;;4973653;28;20209;-79
2023/03/19 05:08:39;;;;;;;2.63;2.13;;;1.10;85.40;;;;;;4978066;28;20221;-78
2023/03/19 05:11:04;;;;;;;1.30;1.17;;;1.10;85.50;;;;;;4980881;28;20193;-78
2023/03/19 05:13:30;;;;;;;1.43;1.40;;;1.10;85.50;;;;;;4973839;28;20190;-79
2023/03/19 05:15:56;;;;;;;3.20;1.23;;;1.10;85.50;;;;;;4974612;28;20209;-77
2023/03/19 05:18:22;;;;;;;0.93;0.93;;;1.20;85.60;;;;;;4978771;28;20735;-79
2023/03/19 05:20:48;;;;;;;1.43;1.43;;;1.20;85.50;;;;;;4979465;28;20263;-78
2023/03/19 05:23:13;;;;;;;1.23;1.23;;;1.20;85.50;;;;;;4977775;28;20182;-78
2023/03/19 05:25:39;;;;;;;1.50;1.40;;;1.30;85.30;;;;;;4977871;28;20703;-79
2023/03/19 05:28:07;;;;;;;5.97;2.17;;;1.30;85.30;;;;;;4973303;28;20287;-78
2023/03/19 05:30:33;;;;;;;1.63;1.63;;;1.40;85.20;;;;;;4971748;28;20182;-79
2023/03/19 05:33:00;;;;;;;1.10;1.10;;;1.40;85.20;;;;;;4976827;28;20193;-78
2023/03/19 05:35:28;;;;;;;2.20;1.70;;;1.40;85.10;;;;;;4979848;28;20190;-78
2023/03/19 05:37:54;;;;;;;1.60;1.40;;;1.50;85.10;;;;;;4981975;28;20185;-78
2023/03/19 05:40:21;;;;;;;1.73;1.60;;;1.60;85.00;;;;;;4975773;28;20218;-79
2023/03/19 05:42:47;;;;;;;1.60;1.50;;;1.60;85.10;;;;;;4979457;28;20713;-78
2023/03/19 05:45:12;;;;;;;2.23;2.13;;;1.70;84.90;;;;;;4973241;28;20268;-78
2023/03/19 05:47:38;;;;;;;2.80;2.07;;;1.70;84.90;;;;;;4977389;28;20214;-77
2023/03/19 05:50:05;;;;;;;2.07;1.60;;;1.80;84.90;;;;;;4974993;28;20186;-77
2023/03/19 05:52:31;;;;;;;4.07;1.63;;;1.80;85.00;;;;;;4978348;28;20181;-78
2023/03/19 05:54:57;;;;;;;3.67;1.83;;;1.90;84.80;;;;;;4977185;28;20185;-78
2023/03/19 05:57:23;;;;;;;1.60;1.47;;;1.90;84.70;;;;;;4976760;28;20301;-78
2023/03/19 05:59:49;;;;;;;1.73;1.57;;;2.00;84.60;;;;;;4977200;28;20182;-78
2023/03/19 06:02:14;;;;;;;1.20;1.20;;;2.00;83.50;;;;;;4975887;28;20192;-78
2023/03/19 06:04:40;;;;;;;1.10;1.03;;;2.10;83.20;;;;;;4977258;28;20181;-79
2023/03/19 06:07:06;;;;;;;1.27;1.17;;;2.20;82.40;;;;;;4974843;28;20296;-78
2023/03/19 06:09:32;;;;;;;0.90;0.90;;;2.20;82.80;;;;;;4977751;28;20636;-73
2023/03/19 06:11:58;;;;;;;1.40;1.10;;;2.30;82.10;;;;;;4974782;28;20289;-73
2023/03/19 06:14:24;;;;;;;7.77;1.17;;;2.30;81.90;;;;;;4972040;28;20283;-74
2023/03/19 06:16:50;;;;;;;1.23;1.13;;;2.40;81.90;;;;;;4975774;28;20183;-73
2023/03/19 06:19:15;;;;;;;1.07;1.07;;;2.50;81.80;;;;;;4975661;28;20181;-73
2023/03/19 06:21:41;;;;;;;1.77;1.70;;;2.50;81.40;;;;;;4980085;28;20197;-74
2023/03/19 06:24:07;;;;;;;1.40;1.13;;;2.60;81.40;;;;;;4976871;28;20186;-74
2023/03/19 06:26:33;;;;;;;2.37;1.37;;;2.60;81.20;;;;;;4978782;28;20200;-74
2023/03/19 06:28:59;;;;;;;1.23;1.23;;;2.70;81.10;;;;;;4974941;28;20216;-74
2023/03/19 06:31:26;;;;;;;1.50;1.30;;;2.70;80.80;;;;;;4975580;28;20201;-74
2023/03/19 06:33:52;;;;;;;2.90;1.47;;;2.80;80.90;;;;;;4974395;28;20193;-74
2023/03/19 06:36:18;;;;;;;1.67;1.57;;;2.90;81.10;;;;;;4979221;28;20636;-74
2023/03/19 06:38:44;;;;;;;1.20;1.10;;;3.00;81.00;;;;;;4979019;28;20281;-74
2023/03/19 06:41:10;;;;;;;5.47;1.67;;;3.00;80.60;;;;;;4976326;28;20779;-74
2023/03/19 06:43:36;;;;;;;1.50;1.40;;;3.10;80.60;;;;;;4977373;28;20280;-74
2023/03/19 06:46:05;;;;;;;1.60;1.50;;;3.10;80.50;;;;;;4975686;28;20274;-74
2023/03/19 06:48:32;;;;;;;1.80;1.60;;;3.20;80.30;;;;;;4977376;28;20300;-75
2023/03/19 06:50:58;;;;;;;2.43;1.73;;;3.30;80.30;;;;;;4977111;28;21104;-73
2023/03/19 06:53:24;;;;;;;2.43;1.70;;;3.40;80.20;;;;;;4979279;28;20177;-74
2023/03/19 06:55:50;;;;;;;1.77;1.60;;;3.40;80.10;;;;;;4977445;28;20979;-75
2023/03/19 06:58:16;;;;;;;1.67;1.57;;;3.50;79.60;;;;;;4975858;28;20198;-74
2023/03/19 07:00:43;;;;;;;5.37;2.13;;;3.60;79.60;;;;;;4979402;28;20240;-74
2023/03/19 07:03:10;;;;;;;1.43;1.33;;;3.70;79.60;;;;;;4980333;28;20182;-74
2023/03/19 07:05:35;;;;;;;1.80;1.57;;;3.70;79.20;;;;;;4978002;28;20187;-75
2023/03/19 07:08:02;;;;;;;1.53;1.33;;;3.80;78.20;;;;;;4981206;28;20287;-75
2023/03/19 07:10:32;;;;;;;2.13;1.40;;;3.90;78.50;;;;;;4979346;28;20178;-73
2023/03/19 07:13:04;;;;;;;3.67;1.73;;;3.90;78.50;;;;;;4978167;28;20205;-72
2023/03/19 07:15:32;;;;;;;1.50;1.40;;;4.00;78.50;;;;;;4976260;28;20294;-78
2023/03/19 07:18:01;;;;;;;6.20;1.60;;;4.10;78.40;;;;;;4978986;28;20265;-78
2023/03/19 07:20:27;;;;;;;2.40;2.10;;;4.20;78.20;;;;;;4981185;28;20751;-78
2023/03/19 07:22:55;;;;;;;3.50;2.53;;;4.30;78.10;;;;;;4975332;28;20182;-77
2023/03/19 07:25:22;;;;;;;2.20;2.10;;;4.40;77.50;;;;;;4982485;28;20181;-76
2023/03/19 07:27:48;;;;;;;1.97;1.70;;;4.50;77.50;;;;;;4979658;28;20221;-74
2023/03/19 07:30:15;;;;;;;1.63;1.53;;;4.60;77.30;;;;;;4980124;28;20923;-74
2023/03/19 07:32:42;;;;;;;3.37;2.10;;;4.70;76.80;;;;;;4982114;28;20186;-74
2023/03/19 07:35:10;;;;;;;3.93;2.23;;;4.80;76.30;;;;;;4978411;28;20204;-74
2023/03/19 07:37:40;;;;;;;1.60;1.50;;;4.80;75.70;;;;;;4977487;28;20190;-80
2023/03/19 07:40:10;;;;;;;1.63;1.53;;;5.00;75.50;;;;;;4983182;28;20924;-80
2023/03/19 07:42:39;;;;;;;2.10;1.93;;;5.10;75.90;;;;;;4978939;28;20177;-79
2023/03/19 07:45:06;;;;;;;2.07;1.40;;;5.20;76.10;;;;;;4978319;28;20200;-78
2023/03/19 07:47:31;;;;;;;2.43;2.10;;;5.30;76.20;;;;;;4979901;28;20702;-78
2023/03/19 07:49:57;;;;;;;1.93;1.80;;;5.40;74.90;;;;;;4975489;28;20178;-79
2023/03/19 07:52:24;;;;;;;1.83;1.73;;;5.60;74.50;;;;;;4978571;28;20190;-79
2023/03/19 07:54:49;;;;;;;2.60;2.40;;;5.70;74.30;;;;;;4974229;28;20818;-79
2023/03/19 07:57:15;;;;;;;1.67;1.57;;;5.80;73.70;;;;;;4977523;28;20190;-78
2023/03/19 07:59:41;;;;;;;1.90;1.80;;;5.90;73.10;;;;;;4976703;28;20554;-79
2023/03/19 08:02:13;;;;;;;2.10;2.00;;;6.00;73.00;;;;;;4978335;28;20265;-78
2023/03/19 08:04:40;;;;;;;3.23;2.20;;;6.10;72.70;;;;;;4978157;28;20254;-76
2023/03/19 08:07:05;;;;;;;3.23;2.30;;;6.30;72.50;;;;;;4977185;28;20214;-79
2023/03/19 08:09:31;;;;;;;3.30;2.10;;;6.50;72.00;;;;;;4973846;28;20216;-75
2023/03/19 08:11:57;;;;;;;2.20;2.10;;;6.70;71.30;;;;;;4977331;28;20586;-74
2023/03/19 08:14:23;;;;;;;5.30;2.37;;;7.10;70.90;;;;;;4973516;28;20190;-75
2023/03/19 08:16:49;;;;;;;2.90;2.50;;;7.60;69.50;;;;;;4975208;28;20683;-77
2023/03/19 08:19:15;;;;;;;2.63;2.33;;;8.40;68.30;;;;;;4977328;28;20205;-80
2023/03/19 08:21:41;;;;;;;2.87;2.67;;;9.20;66.70;;;;;;4975233;28;20213;-79
2023/03/19 08:24:07;;;;;;;4.87;3.10;;;10.20;64.10;;;;;;4977683;28;20697;-80
2023/03/19 08:26:33;;;;;;;3.20;2.97;;;11.00;62.80;;;;;;4979218;28;20182;-80
2023/03/19 08:28:59;;;;;;;5.87;2.50;;;12.10;61.90;;;;;;4976455;28;20260;-79
2023/03/19 08:31:24;;;;;;;5.28;3.38;;;13.00;58.60;;;;;;4976545;28;20252;-78
2023/03/19 08:33:50;;;;;;;3.25;2.95;;;14.10;57.60;;;;;;4976419;28;20649;-78
2023/03/19 08:36:16;;;;;;;2.35;2.17;;;15.30;55.20;;;;;;4978285;28;20186;-79
2023/03/19 08:38:42;;;;;;;6.22;3.75;;;16.20;52.40;;;;;;4981568;28;20214;-80
2023/03/19 08:41:08;;;;;;;5.53;4.53;;;16.70;53.10;;;;;;4982710;28;20188;-81
2023/03/19 08:43:36;;;;;;;4.75;3.72;;;17.40;51.80;;;;;;4974317;28;20743;-80
2023/03/19 08:46:03;;;;;;;6.88;3.95;;;18.20;51.40;;;;;;4980329;28;20202;-78
2023/03/19 08:48:29;;;;;;;4.13;3.83;;;18.90;49.10;;;;;;4977056;28;20209;-80
2023/03/19 08:50:57;;;;;;;7.35;3.88;;;19.60;48.50;;;;;;4979693;28;20221;-83
2023/03/19 08:53:23;;;;;;;4.75;3.47;;;20.30;47.70;;;;;;4981663;28;20273;-78
2023/03/19 08:55:57;;;;;;;4.07;3.78;;;21.10;46.90;;;;;;4979891;28;20177;-80
2023/03/19 08:58:25;;;;;;;4.60;4.20;;;21.70;47.20;;;;;;4979616;28;20691;-79
2023/03/19 09:00:52;;;;;;;4.68;4.30;;;22.10;47.00;;;;;;4980944;28;20647;-79
2023/03/19 09:03:18;;;;;;;8.13;4.47;;;22.60;46.20;;;;;;4979598;28;20788;-80
2023/03/19 09:05:44;;;;;;;4.65;3.58;;;23.10;45.00;;;;;;4981039;28;21371;-79
2023/03/19 09:08:10;;;;;;;5.22;4.43;;;23.40;45.00;;;;;;4976139;28;20243;-79
2023/03/19 09:10:36;;;;;;;5.35;4.95;;;23.90;44.40;;;;;;4971857;28;20185;-78
2023/03/19 09:13:02;;;;;;;3.90;3.65;;;24.40;44.50;;;;;;4976193;28;20285;-78
2023/03/19 09:15:27;;;;;;;4.18;3.88;;;25.00;43.10;;;;;;4981349;28;20256;-78
2023/03/19 09:17:53;;;;;;;4.30;3.90;;;25.50;43.70;;;;;;4980324;28;20186;-78
2023/03/19 09:20:19;;;;;;;3.88;3.65;;;26.00;42.10;;;;;;4973534;28;20182;-80
2023/03/19 09:22:45;;;;;;;4.10;3.78;;;26.50;42.20;;;;;;4979221;28;20213;-79
2023/03/19 09:25:11;;;;;;;4.00;3.65;;;26.80;41.90;;;;;;4977607;28;20821;-79
2023/03/19 09:27:37;;;;;;;4.10;3.70;;;26.80;41.60;;;;;;4979838;28;20704;-78
2023/03/19 09:30:03;;;;;;;3.83;3.45;;;26.70;41.00;;;;;;4980979;28;20181;-79
2023/03/19 09:32:30;;;;;;;3.15;2.88;;;26.90;42.90;;;;;;4975018;28;20183;-79
2023/03/19 09:34:56;;;;;;;3.08;2.97;;;27.40;42.50;;;;;;4981166;28;20182;-80
2023/03/19 09:37:22;;;;;;;4.57;3.33;;;27.90;43.00;;;;;;4978304;28;20186;-80
2023/03/19 09:39:47;;;;;;;4.75;3.83;;;28.50;40.30;;;;;;4979922;28;20667;-80
2023/03/19 09:42:50;;;;;;;3.47;3.25;;;28.80;42.00;;;;;;4979101;28;20243;-80
2023/03/19 09:45:18;;;;;;;3.13;2.60;;;29.50;40.40;;;;;;4974073;28;20276;-79
2023/03/19 09:47:46;;;;;;;3.20;3.00;;;30.10;41.50;;;;;;4980267;28;20765;-79
2023/03/19 09:50:17;;;;;;;3.70;3.40;;;30.50;41.30;;;;;;4980896;28;20186;-80
2023/03/19 09:52:46;;;;;;;5.32;3.30;;;30.90;41.20;;;;;;4976191;28;20194;-80
2023/03/19 09:55:18;;;;;;;4.13;3.83;;;31.10;39.60;;;;;;4973233;28;20240;-80
2023/03/19 09:57:44;;;;;;;3.65;3.45;;;31.20;39.10;;;;;;4979876;28;20194;-80
2023/03/19 10:00:21;;;;;;;4.18;3.58;;;31.20;39.80;;;;;;4976158;28;20185;-79
2023/03/19 10:02:53;;;;;;;3.72;3.53;;;30.80;38.00;;;;;;4972266;28;20189;-80
2023/03/19 10:05:38;;;;;;;3.88;3.55;;;30.80;41.20;;;;;;4977004;28;20239;-80
2023/03/19 10:08:38;;;;;;;4.75;4.40;;;31.20;40.90;;;;;;4976913;28;20272;-82
2023/03/19 10:11:49;;;;;;;3.92;3.72;;;31.70;38.70;;;;;;4974380;28;20203;-79
2023/03/19 10:14:23;;;;;;;5.30;4.50;;;32.10;37.00;;;;;;4974420;28;20301;-79
2023/03/19 10:16:53;;;;;;;4.25;3.95;;;32.40;40.70;;;;;;4974480;28;20192;-80
2023/03/19 10:19:28;;;;;;;4.45;4.15;;;32.50;40.40;;;;;;4974710;28;20186;-80
2023/03/19 10:22:00;;;;;;;4.28;4.07;;;32.80;38.40;;;;;;4975814;28;20185;-80
2023/03/19 10:24:32;;;;;;;4.85;4.40;;;32.90;39.50;;;;;;4979652;28;20192;-80
2023/03/19 10:27:01;;;;;;;4.78;4.25;;;33.20;39.40;;;;;;4976562;28;20656;-78
2023/03/19 10:29:27;;;;;;;4.00;3.70;;;33.50;39.90;;;;;;4976205;28;20272;-79
2023/03/19 10:32:18;;;;;;;4.75;4.28;;;33.80;40.60;;;;;;4981215;28;20260;-79
2023/03/19 10:34:49;;;;;;;4.20;3.97;;;34.20;37.00;;;;;;4976306;28;20185;-81
2023/03/19 10:37:19;;;;;;;4.28;3.92;;;34.30;40.10;;;;;;4978155;28;20192;-80
2023/03/19 10:39:48;;;;;;;5.13;4.63;;;34.50;39.10;;;;;;4976065;28;20198;-80
2023/03/19 10:42:34;;;;;;;4.15;3.85;;;34.80;39.50;;;;;;4975111;28;20181;-79
2023/03/19 10:45:10;;;;;;;3.95;3.65;;;34.60;35.30;;;;;;4977184;28;20657;-80
2023/03/19 10:47:40;;;;;;;3.95;3.58;;;34.00;34.40;;;;;;4975691;28;20594;-81
2023/03/19 10:50:10;;;;;;;3.22;3.13;;;33.50;36.00;;;;;;4975165;28;20210;-81
2023/03/19 10:52:36;;;;;;;3.13;3.03;;;33.40;39.50;;;;;;4978437;28;20259;-81
2023/03/19 10:55:02;;;;;;;3.75;3.55;;;33.30;38.50;;;;;;4976308;28;20196;-81
2023/03/19 10:57:30;;;;;;;3.65;3.35;;;33.50;40.50;;;;;;4977067;28;20193;-80
2023/03/19 11:00:04;;;;;;;9.15;3.97;;;33.80;40.30;;;;;;4974320;28;20190;-81
2023/03/19 11:02:31;;;;;;;7.85;3.55;;;34.00;37.70;;;;;;4977630;28;20189;-81
2023/03/19 11:05:07;;;;;;;3.97;3.67;;;34.20;38.60;;;;;;4979343;28;20269;-81
2023/03/19 11:07:35;;;;;;;3.40;3.30;;;34.60;37.80;;;;;;4973446;28;20212;-81
2023/03/19 11:10:01;;;;;;;3.97;3.67;;;34.90;39.40;;;;;;4976893;28;20185;-81
2023/03/19 11:12:36;;;;;;;3.80;3.60;;;35.10;37.20;;;;;;4974282;28;20186;-80
2023/03/19 11:15:14;;;;;;;3.45;3.30;;;35.20;36.60;;;;;;4978139;28;20181;-81
2023/03/19 11:17:46;;;;;;;4.25;3.80;;;35.20;34.70;;;;;;4975184;28;20217;-80
2023/03/19 11:20:22;;;;;;;3.65;3.33;;;34.90;38.00;;;;;;4978930;28;20215;-81
2023/03/19 11:22:50;;;;;;;3.55;3.35;;;34.60;36.80;;;;;;4978994;28;20658;-81
2023/03/19 11:25:37;;;;;;;4.43;3.42;;;34.30;39.00;;;;;;4981551;28;20187;-81
2023/03/19 11:28:09;;;;;;;3.35;3.15;;;34.20;34.10;;;;;;4975937;28;20564;-79
2023/03/19 11:30:46;;;;;;;3.45;3.25;;;34.20;36.40;;;;;;4976887;28;20185;-80
2023/03/19 11:33:52;;;;;;;3.28;3.13;;;34.10;35.10;;;;;;4978769;28;20197;-80
2023/03/19 11:36:18;;;;;;;3.10;3.00;;;34.10;34.50;;;;;;4976310;28;20630;-81
2023/03/19 11:38:55;;;;;;;2.80;2.70;;;33.90;37.50;;;;;;4977861;28;20217;-81
2023/03/19 11:42:13;;;;;;;2.97;2.78;;;33.90;37.10;;;;;;4981486;28;20201;-80
2023/03/19 11:45:07;;;;;;;4.10;2.97;;;34.00;34.40;;;;;;4948292;28;20767;-80
2023/03/19 11:47:45;;;;;;;3.25;3.05;;;34.10;33.70;;;;;;4947550;28;20205;-80
2023/03/19 11:50:30;;;;;;;2.92;2.83;;;34.00;36.10;;;;;;4963972;28;20194;-79
2023/03/19 11:53:01;;;;;;;3.17;2.97;;;33.90;37.60;;;;;;4945337;28;20190;-80
2023/03/19 11:55:49;;;;;;;3.95;2.47;;;33.60;36.30;;;;;;4960791;28;20799;-80
2023/03/19 11:58:32;;;;;;;5.30;3.63;;;33.40;34.10;;;;;;4966560;28;20233;-80
2023/03/19 12:01:11;;;;;;;3.97;3.05;;;33.10;35.70;;;;;;4948559;28;20263;-82
2023/03/19 12:04:10;;;;;;;3.08;2.88;;;32.80;36.00;;;;;;4967242;28;20190;-81
2023/03/19 12:07:13;;;;;;;2.70;2.42;;;32.60;34.40;;;;;;4965219;28;20201;-81
2023/03/19 12:10:15;;;;;;;3.20;2.63;;;32.70;34.60;;;;;;4964248;28;20594;-80
2023/03/19 12:13:02;;;;;;;2.83;2.60;;;32.80;34.30;;;;;;4965959;28;20197;-81
2023/03/19 12:15:45;;;;;;;2.38;2.20;;;32.90;33.90;;;;;;4947955;28;20186;-81
2023/03/19 12:18:43;;;;;;;2.53;2.30;;;32.80;37.20;;;;;;4961889;28;21017;-81
2023/03/19 12:21:20;;;;;;;2.35;2.25;;;32.70;35.40;;;;;;4968974;28;20628;-80
2023/03/19 12:24:12;;;;;;;2.20;2.03;;;32.70;35.50;;;;;;4978190;28;20309;-80
2023/03/19 12:27:02;;;;;;;4.35;2.20;;;32.40;33.90;;;;;;4981539;28;20581;-79
2023/03/19 12:29:43;;;;;;;2.75;2.55;;;32.10;35.10;;;;;;4975688;28;20190;-81
2023/03/19 12:32:27;;;;;;;2.10;2.00;;;32.30;36.90;;;;;;4977388;28;20213;-81
2023/03/19 12:34:59;;;;;;;2.50;2.13;;;32.60;35.90;;;;;;4978009;28;20193;-81
2023/03/19 12:37:34;;;;;;;2.22;2.13;;;32.70;36.70;;;;;;4974364;28;20213;-80
2023/03/19 12:40:06;;;;;;;3.80;2.63;;;32.90;37.80;;;;;;4974646;28;20753;-80
2023/03/19 12:42:37;;;;;;;2.53;2.40;;;33.00;37.00;;;;;;4982195;28;20180;-80
2023/03/19 12:45:16;;;;;;;2.35;2.05;;;33.00;36.40;;;;;;4973461;28;20197;-79
2023/03/19 12:47:44;;;;;;;2.33;2.22;;;33.20;37.30;;;;;;4980276;28;20256;-80
2023/03/19 12:50:16;;;;;;;2.90;2.45;;;33.20;34.70;;;;;;4979112;28;20620;-80
2023/03/19 12:52:50;;;;;;;2.58;2.38;;;33.10;37.50;;;;;;4978692;28;20211;-80
2023/03/19 12:55:20;;;;;;;3.53;2.67;;;33.20;36.50;;;;;;4975186;28;20662;-80
2023/03/19 12:57:58;;;;;;;2.58;2.47;;;33.10;37.00;;;;;;4983144;28;20778;-81
2023/03/19 13:00:53;;;;;;;2.53;2.40;;;32.70;34.40;;;;;;4979601;28;20287;-80
2023/03/19 13:03:50;;;;;;;2.17;1.92;;;32.40;35.30;;;;;;4940394;29;20410;-75
2023/03/19 13:06:27;;;;;;;1.85;1.75;;;32.40;35.20;;;;;;4940514;29;20187;-72